Terminal Aerodrome Forecast
Issued by NWS

Home | Current Version | Previous Version | Text Only | Print | Product List | Glossary On
Versions: 1 2 3 4 5 6 7 8 9 10 11 12 13 14 15 16 17 18 19 20 21 22 23 24 25
000
FTUS43 KIND 010500
TAFLAF
TAF
KLAF 010521Z 0106/0206 00000KT P6SM SKC
     FM010700 00000KT 4SM BR SKC
      TEMPO 0110/0112 2SM BR
     FM011600 VRB05KT P6SM SCT040 SCT250
     FM020200 36003KT P6SM FEW100 SCT250
      AMD LTD TO CLD VIS AND WIND TIL 011300=

USA.gov is the U.S. government's official web portal to all federal, state and local government web resources and services.